Time;durP1;ratioP1;P1;durP2;ratioP2;P2;SDS_P1;SDS_P2;PMS_P1;PMS_P2;Temp;Humidity;BMP_temperature;BMP_pressure;BME280_temperature;BME280_humidity;BME280_pressure;Samples;Min_cycle;Max_cycle;Signal;HPM_P1;HPM_P2
2023/08/03 00:00:34;;;;;;;5.40;2.13;;;16.70;99.90;;;;;;5081978;28;20040;-70
2023/08/03 00:03:00;;;;;;;8.23;2.38;;;16.70;99.90;;;;;;5084648;28;20036;-70
2023/08/03 00:05:26;;;;;;;5.10;2.00;;;16.70;99.90;;;;;;5077923;28;20037;-71
2023/08/03 00:07:51;;;;;;;6.53;1.95;;;16.70;99.90;;;;;;5084117;28;20085;-70
2023/08/03 00:10:19;;;;;;;6.35;1.88;;;16.70;99.90;;;;;;5084054;28;20090;-71
2023/08/03 00:12:45;;;;;;;5.65;1.88;;;16.70;99.90;;;;;;5085725;28;20040;-70
2023/08/03 00:15:14;;;;;;;3.42;1.70;;;16.70;99.90;;;;;;5080144;28;20090;-71
2023/08/03 00:17:40;;;;;;;5.63;1.88;;;16.60;99.90;;;;;;5081739;28;20052;-71
2023/08/03 00:20:06;;;;;;;3.65;1.98;;;16.60;99.90;;;;;;5085142;28;20097;-71
2023/08/03 00:22:33;;;;;;;5.80;2.05;;;16.60;99.90;;;;;;5076134;28;20028;-70
2023/08/03 00:24:59;;;;;;;6.10;2.10;;;16.50;99.90;;;;;;5072304;28;20036;-72
2023/08/03 00:27:25;;;;;;;4.60;1.80;;;16.50;99.90;;;;;;5084556;28;20036;-71
2023/08/03 00:29:51;;;;;;;6.10;2.70;;;16.50;99.90;;;;;;5079526;28;20170;-71
2023/08/03 00:32:17;;;;;;;5.63;2.08;;;16.50;99.90;;;;;;5072550;28;20045;-71
2023/08/03 00:34:43;;;;;;;6.20;2.50;;;16.40;99.90;;;;;;5090775;28;20044;-72
2023/08/03 00:37:11;;;;;;;5.95;2.20;;;16.40;99.90;;;;;;5093830;28;20042;-71
2023/08/03 00:39:36;;;;;;;6.03;2.35;;;16.40;99.90;;;;;;5085019;28;20047;-71
2023/08/03 00:42:02;;;;;;;7.18;2.30;;;16.40;99.90;;;;;;5083986;28;20044;-71
2023/08/03 00:44:28;;;;;;;4.68;2.10;;;16.40;99.90;;;;;;5085008;28;20039;-71
2023/08/03 00:46:54;;;;;;;7.30;1.90;;;16.40;99.90;;;;;;5078667;28;20043;-72
2023/08/03 00:49:20;;;;;;;5.53;1.90;;;16.50;99.90;;;;;;5072056;28;20068;-71
2023/08/03 00:51:45;;;;;;;3.50;1.80;;;16.40;99.90;;;;;;5084245;28;20501;-71
2023/08/03 00:54:11;;;;;;;3.50;1.60;;;16.30;99.90;;;;;;5070350;28;20044;-71
2023/08/03 00:56:37;;;;;;;6.40;1.90;;;16.30;99.90;;;;;;5083069;28;20036;-71
2023/08/03 00:59:03;;;;;;;4.80;1.85;;;16.40;99.90;;;;;;5087404;28;20043;-71
2023/08/03 01:01:29;;;;;;;5.45;2.08;;;16.40;99.90;;;;;;5091341;28;20304;-71
2023/08/03 01:03:55;;;;;;;3.20;2.10;;;16.30;99.90;;;;;;5075533;28;20569;-71
2023/08/03 01:06:21;;;;;;;4.20;2.13;;;16.30;99.90;;;;;;5078406;28;20032;-71
2023/08/03 01:08:47;;;;;;;4.95;2.13;;;16.30;99.90;;;;;;5082691;28;20039;-71
2023/08/03 01:11:13;;;;;;;4.93;2.33;;;16.20;99.90;;;;;;5073177;28;20044;-71
2023/08/03 01:13:39;;;;;;;6.68;2.05;;;16.20;99.90;;;;;;5074222;28;20086;-71
2023/08/03 01:16:07;;;;;;;5.72;2.15;;;16.20;99.90;;;;;;5083440;28;20504;-71
2023/08/03 01:18:32;;;;;;;5.07;2.22;;;16.10;99.90;;;;;;5078617;28;20059;-71
2023/08/03 01:20:59;;;;;;;5.45;2.22;;;16.20;99.90;;;;;;5072211;28;20842;-70
2023/08/03 01:23:24;;;;;;;4.63;2.20;;;16.20;99.90;;;;;;5077243;28;20040;-70
2023/08/03 01:25:50;;;;;;;3.80;2.05;;;16.20;99.90;;;;;;5079628;28;20043;-70
2023/08/03 01:28:16;;;;;;;5.22;2.22;;;16.20;99.90;;;;;;5078115;28;20371;-71
2023/08/03 01:30:41;;;;;;;3.90;2.10;;;16.20;99.90;;;;;;5082401;28;20044;-70
2023/08/03 01:33:07;;;;;;;5.10;2.38;;;16.20;99.90;;;;;;5083727;28;20048;-70
2023/08/03 01:35:32;;;;;;;3.90;2.33;;;16.20;99.90;;;;;;5076407;28;20417;-71
2023/08/03 01:37:58;;;;;;;4.40;2.20;;;16.20;99.90;;;;;;5075330;28;20577;-71
2023/08/03 01:40:24;;;;;;;3.28;2.10;;;16.20;99.90;;;;;;5072593;28;20028;-71
2023/08/03 01:42:49;;;;;;;6.38;2.10;;;16.20;99.90;;;;;;5081591;28;20109;-71
2023/08/03 01:45:15;;;;;;;6.03;1.90;;;16.20;99.90;;;;;;5082402;28;20220;-71
2023/08/03 01:47:40;;;;;;;3.78;2.10;;;16.20;99.90;;;;;;5075838;28;20127;-71
2023/08/03 01:50:06;;;;;;;3.78;2.10;;;16.20;99.90;;;;;;5075925;28;20040;-71
2023/08/03 01:52:32;;;;;;;2.92;1.95;;;16.20;99.90;;;;;;5081832;28;20478;-71
2023/08/03 01:54:57;;;;;;;3.45;2.00;;;16.20;99.90;;;;;;5083364;28;20108;-70
2023/08/03 01:57:23;;;;;;;3.05;1.90;;;16.20;99.90;;;;;;5090116;28;20737;-69
2023/08/03 01:59:49;;;;;;;5.25;2.13;;;16.20;99.90;;;;;;5089821;28;20048;-70
2023/08/03 02:02:14;;;;;;;4.78;2.03;;;16.20;99.90;;;;;;5089941;28;20127;-70
2023/08/03 02:04:40;;;;;;;4.53;2.08;;;16.20;99.90;;;;;;5065771;28;20032;-71
2023/08/03 02:07:17;;;;;;;4.47;2.42;;;16.20;99.90;;;;;;5075710;28;20394;-70
2023/08/03 02:09:42;;;;;;;4.97;2.60;;;16.30;99.90;;;;;;5064574;28;20055;-71
2023/08/03 02:12:09;;;;;;;4.13;2.50;;;16.30;99.90;;;;;;5077415;28;20406;-71
2023/08/03 02:14:34;;;;;;;5.50;2.40;;;16.30;99.90;;;;;;5078698;28;20051;-71
2023/08/03 02:17:00;;;;;;;4.30;2.80;;;16.30;99.90;;;;;;5081580;28;20409;-71
2023/08/03 02:19:26;;;;;;;4.35;2.63;;;16.30;99.90;;;;;;5074148;28;20071;-72
2023/08/03 02:21:52;;;;;;;3.70;2.85;;;16.30;99.90;;;;;;5079150;28;20047;-71
2023/08/03 02:24:17;;;;;;;5.90;3.08;;;16.30;99.90;;;;;;5086490;28;20044;-70
2023/08/03 02:26:43;;;;;;;5.03;3.25;;;16.30;99.90;;;;;;5083846;28;20048;-70
2023/08/03 02:29:09;;;;;;;8.30;3.78;;;16.30;99.90;;;;;;5076594;28;20036;-70
2023/08/03 02:31:34;;;;;;;6.50;3.33;;;16.30;99.90;;;;;;5086845;28;20032;-70
2023/08/03 02:34:00;;;;;;;5.72;3.47;;;16.30;99.90;;;;;;5083621;28;20040;-71
2023/08/03 02:36:26;;;;;;;6.63;3.40;;;16.30;99.90;;;;;;5071763;28;20035;-70
2023/08/03 02:38:51;;;;;;;7.28;3.63;;;16.30;99.90;;;;;;5079064;28;20528;-71
2023/08/03 02:41:17;;;;;;;7.53;3.97;;;16.30;99.90;;;;;;5080836;28;20044;-70
2023/08/03 02:43:43;;;;;;;10.48;3.90;;;16.40;99.90;;;;;;5073494;28;20380;-71
2023/08/03 02:46:08;;;;;;;6.15;4.18;;;16.40;99.90;;;;;;5076005;28;20028;-71
2023/08/03 02:48:34;;;;;;;8.38;4.38;;;16.40;99.90;;;;;;5079739;28;20123;-71
2023/08/03 02:50:59;;;;;;;13.60;3.88;;;16.40;99.90;;;;;;5082004;28;20043;-70
2023/08/03 02:53:25;;;;;;;8.30;4.18;;;16.40;99.90;;;;;;5074970;28;20041;-70
2023/08/03 02:55:51;;;;;;;7.72;4.03;;;16.50;99.90;;;;;;5080863;28;20024;-70
2023/08/03 02:58:17;;;;;;;9.95;4.25;;;16.40;99.90;;;;;;5081454;28;20304;-70
2023/08/03 03:00:43;;;;;;;9.65;4.80;;;16.50;99.90;;;;;;5077445;28;20554;-70
2023/08/03 03:03:09;;;;;;;6.50;4.90;;;16.50;99.90;;;;;;5082481;28;20059;-70
2023/08/03 03:05:34;;;;;;;7.25;5.10;;;16.50;99.90;;;;;;5082337;28;20398;-71
2023/08/03 03:08:00;;;;;;;9.52;5.10;;;16.50;99.90;;;;;;5081147;28;20044;-71
2023/08/03 03:10:26;;;;;;;12.55;5.60;;;16.50;99.90;;;;;;5074110;28;20560;-71
2023/08/03 03:12:51;;;;;;;10.15;5.20;;;16.60;99.90;;;;;;5075035;28;20093;-71
2023/08/03 03:15:17;;;;;;;11.20;5.38;;;16.60;99.90;;;;;;5082653;28;20490;-71
2023/08/03 03:17:43;;;;;;;10.95;5.20;;;16.50;99.90;;;;;;5076648;28;20040;-71
2023/08/03 03:20:10;;;;;;;7.38;4.63;;;16.60;99.90;;;;;;5070548;28;20042;-70
2023/08/03 03:22:36;;;;;;;10.60;5.00;;;16.60;99.90;;;;;;5081317;28;20055;-71
2023/08/03 03:25:05;;;;;;;10.50;5.00;;;16.60;99.90;;;;;;5083339;28;20043;-70
2023/08/03 03:27:30;;;;;;;10.13;5.00;;;16.60;99.90;;;;;;5074190;28;20085;-70
2023/08/03 03:29:56;;;;;;;15.90;5.05;;;16.60;99.90;;;;;;5083250;28;20043;-70
2023/08/03 03:32:22;;;;;;;11.45;4.35;;;16.60;99.90;;;;;;5081647;28;20512;-71
2023/08/03 03:34:47;;;;;;;15.52;5.50;;;16.70;99.90;;;;;;5070037;28;20047;-71
2023/08/03 03:37:13;;;;;;;10.57;4.47;;;16.70;99.90;;;;;;5079041;28;20427;-70
2023/08/03 03:39:40;;;;;;;8.35;3.85;;;16.70;99.90;;;;;;5068014;28;20032;-70
2023/08/03 03:42:05;;;;;;;6.95;3.72;;;16.70;99.90;;;;;;5080751;28;20036;-70
2023/08/03 03:44:32;;;;;;;10.60;3.80;;;16.70;99.90;;;;;;5081939;28;20096;-70
2023/08/03 03:46:58;;;;;;;11.00;4.15;;;16.60;99.90;;;;;;5063972;28;20048;-71
2023/08/03 03:49:24;;;;;;;10.55;4.03;;;16.70;99.90;;;;;;5075794;28;20036;-70
2023/08/03 03:51:49;;;;;;;13.38;3.80;;;16.70;99.90;;;;;;5055282;28;20058;-70
2023/08/03 03:54:15;;;;;;;10.82;4.00;;;16.70;99.90;;;;;;5079246;28;20066;-71
2023/08/03 03:56:41;;;;;;;11.43;4.15;;;16.70;99.90;;;;;;5083509;28;20067;-70
2023/08/03 03:59:06;;;;;;;13.23;3.97;;;16.70;99.90;;;;;;5079937;28;20040;-71
2023/08/03 04:01:32;;;;;;;10.75;4.28;;;16.70;99.90;;;;;;5069880;28;20032;-70
2023/08/03 04:03:57;;;;;;;9.65;3.47;;;16.60;99.90;;;;;;5082028;28;20041;-70
2023/08/03 04:06:23;;;;;;;13.32;3.80;;;16.60;99.90;;;;;;5082555;28;20452;-71
2023/08/03 04:08:49;;;;;;;9.55;3.90;;;16.60;99.90;;;;;;5078911;28;20036;-71
2023/08/03 04:11:14;;;;;;;11.43;3.63;;;16.50;99.90;;;;;;5084242;28;20040;-71
2023/08/03 04:13:40;;;;;;;13.25;3.90;;;16.50;99.90;;;;;;5084650;28;20052;-70
2023/08/03 04:16:05;;;;;;;14.32;3.83;;;16.60;99.90;;;;;;5087544;28;20128;-71
2023/08/03 04:18:31;;;;;;;13.95;4.18;;;16.60;99.90;;;;;;5077848;28;20474;-71
2023/08/03 04:20:57;;;;;;;13.65;3.65;;;16.50;99.90;;;;;;5086001;28;20143;-70
2023/08/03 04:23:22;;;;;;;16.05;4.05;;;16.50;99.90;;;;;;5086529;28;20040;-71
2023/08/03 04:25:48;;;;;;;12.95;4.47;;;16.50;99.90;;;;;;5080573;28;20044;-71
2023/08/03 04:28:13;;;;;;;11.85;4.57;;;16.50;99.90;;;;;;5080594;28;20036;-69
2023/08/03 04:30:39;;;;;;;13.45;4.43;;;16.50;99.90;;;;;;5086277;28;20185;-70
2023/08/03 04:33:05;;;;;;;8.65;4.25;;;16.50;99.90;;;;;;5083144;28;20050;-70
2023/08/03 04:35:30;;;;;;;9.32;4.35;;;16.50;99.90;;;;;;5070163;28;20040;-71
2023/08/03 04:37:56;;;;;;;11.77;5.20;;;16.40;99.90;;;;;;5084992;28;20039;-71
2023/08/03 04:40:21;;;;;;;10.13;4.53;;;16.50;99.90;;;;;;5080547;28;20037;-70
2023/08/03 04:42:47;;;;;;;13.90;5.15;;;16.50;99.90;;;;;;5079035;28;20044;-71
2023/08/03 04:45:13;;;;;;;14.25;5.10;;;16.50;99.90;;;;;;5091260;28;20043;-71
2023/08/03 04:47:38;;;;;;;12.45;4.65;;;16.60;99.90;;;;;;5084805;28;20048;-71
2023/08/03 04:50:04;;;;;;;15.93;5.63;;;16.60;99.90;;;;;;5081243;28;20416;-70
2023/08/03 04:52:30;;;;;;;13.02;5.35;;;16.60;99.90;;;;;;5078937;28;20122;-70
2023/08/03 04:54:56;;;;;;;14.18;5.18;;;16.60;99.90;;;;;;5085282;28;20490;-71
2023/08/03 04:57:21;;;;;;;12.30;5.63;;;16.70;99.90;;;;;;5083720;28;20040;-70
2023/08/03 04:59:47;;;;;;;11.70;5.75;;;16.70;99.90;;;;;;5074847;28;20068;-70
2023/08/03 05:02:12;;;;;;;11.60;6.05;;;16.80;99.90;;;;;;5091280;28;20035;-71
2023/08/03 05:04:38;;;;;;;16.02;6.50;;;16.80;99.90;;;;;;5102849;28;20440;-70
2023/08/03 05:07:04;;;;;;;15.32;6.28;;;16.80;99.90;;;;;;5077715;28;20123;-70
2023/08/03 05:09:29;;;;;;;12.80;6.35;;;16.90;99.90;;;;;;5083196;28;20034;-70
2023/08/03 05:11:55;;;;;;;18.85;6.63;;;16.90;99.90;;;;;;5104072;28;20481;-70
2023/08/03 05:14:21;;;;;;;13.18;6.28;;;17.00;99.90;;;;;;5075884;28;20086;-70
2023/08/03 05:16:46;;;;;;;10.35;6.15;;;17.00;99.90;;;;;;5068539;28;20114;-71
2023/08/03 05:19:12;;;;;;;13.50;6.82;;;17.00;99.90;;;;;;5086438;28;20036;-70
2023/08/03 05:21:38;;;;;;;12.40;6.50;;;17.00;99.90;;;;;;5090752;28;20378;-71
2023/08/03 05:24:04;;;;;;;16.10;6.95;;;17.00;99.90;;;;;;5067276;28;20036;-70
2023/08/03 05:26:35;;;;;;;14.02;6.63;;;17.10;99.90;;;;;;5082353;28;20046;-70
2023/08/03 05:29:02;;;;;;;13.45;6.88;;;17.10;99.90;;;;;;5104025;28;20051;-70
2023/08/03 05:31:28;;;;;;;12.10;6.78;;;17.10;99.90;;;;;;5082702;28;20110;-70
2023/08/03 05:33:55;;;;;;;17.35;6.70;;;17.20;99.90;;;;;;5082065;28;20071;-70
2023/08/03 05:36:21;;;;;;;15.32;6.65;;;17.20;99.90;;;;;;5084360;28;20062;-71
2023/08/03 05:38:46;;;;;;;14.27;6.97;;;17.20;99.90;;;;;;5084480;28;20044;-70
2023/08/03 05:41:20;;;;;;;11.40;6.75;;;17.30;99.90;;;;;;5068615;28;20037;-70
2023/08/03 05:43:46;;;;;;;14.05;6.40;;;17.30;99.90;;;;;;5076930;28;20048;-71
2023/08/03 05:46:13;;;;;;;11.73;6.78;;;17.30;99.90;;;;;;5084216;28;20040;-71
2023/08/03 05:48:39;;;;;;;17.98;7.90;;;17.50;99.90;;;;;;5054541;28;20048;-71
2023/08/03 05:51:05;;;;;;;16.98;7.07;;;17.50;99.90;;;;;;5082234;28;20036;-70
2023/08/03 05:53:32;;;;;;;13.05;7.18;;;17.60;99.90;;;;;;5085126;28;20040;-71
2023/08/03 05:55:58;;;;;;;19.45;7.45;;;17.70;99.90;;;;;;5078494;28;20051;-71
2023/08/03 05:58:24;;;;;;;13.32;7.45;;;17.60;99.90;;;;;;5065646;28;20032;-71
2023/08/03 06:00:50;;;;;;;15.13;7.78;;;17.60;99.90;;;;;;5084553;28;20048;-70
2023/08/03 06:03:18;;;;;;;12.93;7.60;;;17.60;99.90;;;;;;5085208;28;20116;-70
2023/08/03 06:05:49;;;;;;;14.55;7.47;;;17.70;99.90;;;;;;5064052;28;20168;-70
2023/08/03 06:08:19;;;;;;;16.13;7.43;;;17.80;99.90;;;;;;5079306;28;20405;-70
2023/08/03 06:10:46;;;;;;;14.75;7.25;;;17.70;99.90;;;;;;5082664;28;20105;-70
2023/08/03 06:13:15;;;;;;;12.02;7.15;;;17.80;99.90;;;;;;5073931;28;20170;-71
2023/08/03 06:15:42;;;;;;;19.75;8.10;;;17.90;99.90;;;;;;5072703;28;20101;-71
2023/08/03 06:18:19;;;;;;;11.93;7.68;;;17.90;99.90;;;;;;5083613;28;20051;-71
2023/08/03 06:20:47;;;;;;;16.73;7.57;;;18.00;99.90;;;;;;5081264;28;20113;-71
2023/08/03 06:23:17;;;;;;;13.32;7.13;;;17.90;99.90;;;;;;5080470;28;20040;-71
2023/08/03 06:25:43;;;;;;;17.35;8.00;;;18.00;99.90;;;;;;5084448;28;20467;-71
2023/08/03 06:28:10;;;;;;;13.32;7.20;;;18.10;99.90;;;;;;5074519;28;20111;-70
2023/08/03 06:30:36;;;;;;;17.05;8.13;;;18.10;99.90;;;;;;5074400;28;20055;-70
2023/08/03 06:33:02;;;;;;;16.17;7.80;;;18.00;99.90;;;;;;5090116;28;20052;-70
2023/08/03 06:35:38;;;;;;;15.30;8.75;;;18.00;99.90;;;;;;5080252;28;20124;-70
2023/08/03 06:38:07;;;;;;;14.57;8.18;;;18.00;99.90;;;;;;5072158;28;20032;-71
2023/08/03 06:40:33;;;;;;;14.80;8.40;;;18.00;99.90;;;;;;5088391;28;20054;-71
2023/08/03 06:43:00;;;;;;;13.93;8.25;;;18.00;99.90;;;;;;5083461;28;20075;-70
2023/08/03 06:45:26;;;;;;;15.10;7.85;;;18.00;99.90;;;;;;5084167;28;20490;-70
2023/08/03 06:47:53;;;;;;;19.05;7.40;;;18.10;99.90;;;;;;5076089;28;20040;-70
2023/08/03 06:50:18;;;;;;;15.38;7.70;;;18.10;99.90;;;;;;5076357;28;20036;-71
2023/08/03 06:52:44;;;;;;;13.32;7.22;;;18.30;99.90;;;;;;5095624;28;20040;-71
2023/08/03 06:55:10;;;;;;;12.77;7.32;;;18.30;99.90;;;;;;5080709;28;20540;-71
2023/08/03 06:57:35;;;;;;;16.38;7.90;;;18.30;99.90;;;;;;5073814;28;20629;-71
2023/08/03 07:00:01;;;;;;;14.52;8.00;;;18.30;99.90;;;;;;5083929;28;20066;-71
2023/08/03 07:02:26;;;;;;;13.63;7.38;;;18.40;99.90;;;;;;5079815;28;20095;-71
2023/08/03 07:04:52;;;;;;;15.30;7.15;;;18.40;99.90;;;;;;5083619;28;20032;-71
2023/08/03 07:07:18;;;;;;;11.80;7.35;;;18.60;99.90;;;;;;5081980;28;20048;-70
2023/08/03 07:09:50;;;;;;;25.55;7.60;;;18.70;99.90;;;;;;5072220;28;20378;-70
2023/08/03 07:12:15;;;;;;;12.02;6.82;;;18.90;99.90;;;;;;5068146;28;20051;-70
2023/08/03 07:14:41;;;;;;;12.88;6.90;;;18.90;99.90;;;;;;5072062;28;20036;-70
2023/08/03 07:17:07;;;;;;;14.20;6.55;;;18.90;99.90;;;;;;5082255;28;20040;-70
2023/08/03 07:19:33;;;;;;;12.88;6.97;;;18.80;99.90;;;;;;5100102;28;20400;-70
2023/08/03 07:21:58;;;;;;;11.40;6.55;;;18.70;99.90;;;;;;5106276;28;20054;-70
2023/08/03 07:24:27;;;;;;;13.70;6.60;;;18.80;99.90;;;;;;5076868;28;20044;-70
2023/08/03 07:26:54;;;;;;;11.65;6.95;;;18.80;99.90;;;;;;5072451;28;20036;-71
2023/08/03 07:29:20;;;;;;;11.02;6.75;;;18.80;99.90;;;;;;5083437;28;20394;-70
2023/08/03 07:31:46;;;;;;;13.32;6.18;;;18.90;99.90;;;;;;5087502;28;20084;-70
2023/08/03 07:34:11;;;;;;;14.27;6.47;;;18.90;99.90;;;;;;5087942;28;20067;-70
2023/08/03 07:36:37;;;;;;;11.25;5.70;;;19.10;99.90;;;;;;5075496;28;20150;-71
2023/08/03 07:39:02;;;;;;;11.02;5.68;;;19.40;99.90;;;;;;5084250;28;20120;-71
2023/08/03 07:41:28;;;;;;;8.75;5.20;;;19.50;99.90;;;;;;5083316;28;20043;-71
2023/08/03 07:43:54;;;;;;;8.60;5.30;;;19.40;99.90;;;;;;5078449;28;20088;-71
2023/08/03 07:46:19;;;;;;;9.05;4.95;;;19.30;99.90;;;;;;5075622;28;20118;-71
2023/08/03 07:48:45;;;;;;;10.02;5.05;;;19.30;99.90;;;;;;5094211;28;20104;-71
2023/08/03 08:02:13;;;;;;;14.18;5.03;;;19.80;99.90;;;;;;5004400;28;20042;-75
2023/08/03 08:04:38;;;;;;;9.93;4.13;;;19.80;99.90;;;;;;4987335;28;20387;-71
2023/08/03 08:07:04;;;;;;;6.78;3.90;;;19.80;99.90;;;;;;4993647;28;20037;-73
2023/08/03 08:09:30;;;;;;;7.13;4.18;;;19.80;99.90;;;;;;4994843;28;20104;-70
2023/08/03 08:11:55;;;;;;;8.75;3.70;;;19.90;99.90;;;;;;4973228;28;20099;-70
2023/08/03 08:14:21;;;;;;;7.53;3.70;;;20.10;99.90;;;;;;5008892;28;20041;-72
2023/08/03 08:16:46;;;;;;;10.70;3.28;;;20.10;99.90;;;;;;5004886;28;20117;-76
2023/08/03 08:19:12;;;;;;;8.77;3.63;;;19.80;99.90;;;;;;4991384;28;20549;-71
2023/08/03 08:21:37;;;;;;;6.45;3.53;;;19.50;99.90;;;;;;4992396;28;20042;-76
2023/08/03 08:24:03;;;;;;;9.48;3.50;;;19.30;99.90;;;;;;4989017;28;20063;-71
2023/08/03 08:26:29;;;;;;;8.50;3.08;;;19.00;99.90;;;;;;4988881;28;20034;-72
2023/08/03 08:28:56;;;;;;;8.88;3.10;;;18.80;99.90;;;;;;5008380;28;20037;-71
2023/08/03 08:31:23;;;;;;;8.20;3.50;;;18.70;99.90;;;;;;5004266;28;20085;-72
2023/08/03 08:33:49;;;;;;;7.32;4.00;;;18.80;99.90;;;;;;4994222;28;20738;-73
2023/08/03 08:36:15;;;;;;;6.75;4.40;;;18.90;99.90;;;;;;4993924;28;20037;-71
2023/08/03 08:38:40;;;;;;;10.00;4.35;;;19.10;99.90;;;;;;5013752;28;20092;-72
2023/08/03 08:41:06;;;;;;;7.97;3.88;;;19.30;99.90;;;;;;4987452;28;20096;-72
2023/08/03 08:43:32;;;;;;;6.07;3.53;;;19.60;99.90;;;;;;5003429;28;20037;-72
2023/08/03 08:45:58;;;;;;;6.68;2.95;;;19.80;99.90;;;;;;5005416;28;20045;-77
2023/08/03 08:48:23;;;;;;;6.15;2.80;;;20.10;99.90;;;;;;5003608;28;21021;-76
2023/08/03 08:50:50;;;;;;;6.53;2.78;;;20.40;99.90;;;;;;5017834;28;20144;-74
2023/08/03 08:53:16;;;;;;;4.40;2.08;;;20.60;99.90;;;;;;4977689;28;20092;-74
2023/08/03 08:55:42;;;;;;;3.15;1.75;;;20.60;99.90;;;;;;5023608;28;20053;-75
2023/08/03 08:58:08;;;;;;;5.05;1.95;;;20.50;99.90;;;;;;5019400;28;20060;-75
2023/08/03 09:00:44;;;;;;;3.25;1.83;;;20.30;99.90;;;;;;5008459;28;20567;-76
2023/08/03 09:03:10;;;;;;;2.55;1.63;;;20.30;99.90;;;;;;5028148;28;20597;-75
2023/08/03 09:05:37;;;;;;;3.47;1.55;;;20.40;99.90;;;;;;5008089;28;20045;-74
2023/08/03 09:08:16;;;;;;;5.43;1.85;;;20.40;99.90;;;;;;5014251;28;20041;-74
2023/08/03 09:10:54;;;;;;;7.10;1.88;;;20.70;99.90;;;;;;4971401;28;20042;-76
2023/08/03 09:13:40;;;;;;;3.83;1.77;;;20.70;99.90;;;;;;4989419;28;20099;-78
2023/08/03 09:16:20;;;;;;;4.80;1.48;;;20.80;99.90;;;;;;4992348;28;20072;-79
2023/08/03 09:18:46;;;;;;;4.18;1.48;;;20.80;99.90;;;;;;4992156;28;20566;-76
2023/08/03 09:21:13;;;;;;;3.17;1.90;;;20.90;99.90;;;;;;4987343;28;20038;-73
2023/08/03 09:23:40;;;;;;;7.60;2.13;;;20.90;99.90;;;;;;5002121;28;20041;-74
2023/08/03 09:26:06;;;;;;;4.22;2.05;;;21.10;99.90;;;;;;4986886;28;20259;-73
2023/08/03 09:28:41;;;;;;;5.80;1.92;;;21.20;99.90;;;;;;4986953;28;20050;-73
2023/08/03 09:31:07;;;;;;;4.22;1.60;;;21.40;99.90;;;;;;4987390;28;20567;-74
2023/08/03 09:36:14;;;;;;;3.47;1.60;;;21.60;99.90;;;;;;6149345;22;20031;-71
2023/08/03 09:38:42;;;;;;;6.82;1.80;;;21.10;99.90;;;;;;4967968;28;20050;-71
2023/08/03 09:41:10;;;;;;;4.63;1.95;;;20.80;99.90;;;;;;4978078;28;20097;-71
2023/08/03 09:43:36;;;;;;;5.65;2.03;;;20.60;99.90;;;;;;4986213;28;20053;-71
2023/08/03 09:46:02;;;;;;;5.95;2.08;;;20.70;99.90;;;;;;4987130;28;20498;-71
2023/08/03 09:48:28;;;;;;;3.92;1.58;;;20.90;99.90;;;;;;4982034;28;20046;-71
2023/08/03 09:50:58;;;;;;;5.50;1.60;;;21.10;99.90;;;;;;5017085;23;20052;-68
2023/08/03 09:53:28;;;;;;;5.13;2.00;;;21.20;99.90;;;;;;5019995;28;20042;-68
2023/08/03 09:56:01;;;;;;;5.50;1.88;;;21.50;99.90;;;;;;5005409;28;20042;-68
2023/08/03 09:58:48;;;;;;;4.90;1.63;;;21.70;99.90;;;;;;5013366;28;20096;-69
2023/08/03 10:01:18;;;;;;;2.97;1.65;;;22.00;99.90;;;;;;5013743;28;20491;-68
2023/08/03 10:03:49;;;;;;;3.88;1.58;;;21.90;99.90;;;;;;5009943;28;20336;-68
2023/08/03 10:06:17;;;;;;;2.53;1.40;;;21.90;99.90;;;;;;5010282;28;20045;-68
2023/08/03 10:08:56;;;;;;;3.53;1.60;;;21.80;99.90;;;;;;5018370;28;20095;-68
2023/08/03 10:11:28;;;;;;;3.65;1.35;;;21.80;99.90;;;;;;5015791;28;20037;-68
2023/08/03 10:13:55;;;;;;;3.45;1.45;;;21.70;99.90;;;;;;5019405;28;20084;-68
2023/08/03 10:16:21;;;;;;;3.70;1.40;;;21.90;99.90;;;;;;5029754;28;20043;-68
2023/08/03 10:18:47;;;;;;;3.83;1.42;;;22.10;99.90;;;;;;5008460;28;20050;-68
2023/08/03 10:21:13;;;;;;;3.90;1.60;;;22.40;99.90;;;;;;5012624;28;20041;-69
2023/08/03 10:23:39;;;;;;;5.05;1.50;;;22.30;99.90;;;;;;5017405;28;20376;-68
2023/08/03 10:26:08;;;;;;;3.83;1.55;;;21.70;99.90;;;;;;5016412;28;20041;-67
2023/08/03 10:28:40;;;;;;;5.13;1.40;;;21.40;99.90;;;;;;5010846;28;20497;-69
2023/08/03 10:31:17;;;;;;;2.53;1.20;;;21.40;99.90;;;;;;5014187;28;20048;-68
2023/08/03 10:33:51;;;;;;;2.65;1.30;;;21.70;99.90;;;;;;5015279;28;20416;-68
2023/08/03 10:36:29;;;;;;;2.78;1.50;;;21.80;99.90;;;;;;5009014;28;20045;-68
2023/08/03 10:39:00;;;;;;;3.13;1.50;;;22.00;99.90;;;;;;5027981;28;20132;-69
2023/08/03 10:41:36;;;;;;;7.28;1.60;;;22.10;99.90;;;;;;5014583;28;20435;-68
2023/08/03 10:44:14;;;;;;;6.35;1.48;;;22.20;99.90;;;;;;5010720;28;20041;-69
2023/08/03 10:46:48;;;;;;;5.80;1.33;;;22.10;99.90;;;;;;5008177;28;20112;-67
2023/08/03 10:49:20;;;;;;;2.20;1.30;;;22.00;99.90;;;;;;5027471;28;20111;-67
2023/08/03 10:51:46;;;;;;;5.25;1.40;;;21.90;99.90;;;;;;5013098;28;20125;-68
2023/08/03 10:54:12;;;;;;;6.35;1.63;;;22.10;99.90;;;;;;5024654;28;20041;-69
2023/08/03 10:56:38;;;;;;;4.65;1.95;;;22.10;99.90;;;;;;5017397;28;20041;-68
2023/08/03 10:59:05;;;;;;;5.10;1.58;;;22.10;99.90;;;;;;5025446;28;20483;-68
2023/08/03 11:01:31;;;;;;;4.13;1.60;;;21.90;99.90;;;;;;5014194;28;20040;-68
2023/08/03 11:04:00;;;;;;;3.90;1.60;;;21.90;99.90;;;;;;5022418;28;20068;-68
2023/08/03 11:06:28;;;;;;;4.70;1.65;;;22.00;99.90;;;;;;5013068;28;20452;-68
2023/08/03 11:08:55;;;;;;;4.55;1.70;;;22.00;99.90;;;;;;5006810;28;20766;-68
2023/08/03 11:11:27;;;;;;;5.68;1.70;;;22.00;99.90;;;;;;5023283;28;20060;-68
2023/08/03 11:13:53;;;;;;;5.13;1.70;;;21.90;99.90;;;;;;5028271;28;20042;-68
2023/08/03 11:16:20;;;;;;;5.07;1.70;;;21.80;99.90;;;;;;5031224;28;20517;-68
2023/08/03 11:18:46;;;;;;;4.45;1.90;;;21.90;99.90;;;;;;5012286;28;20103;-68
2023/08/03 11:21:12;;;;;;;4.40;1.73;;;22.10;99.90;;;;;;5018018;28;20044;-68
2023/08/03 11:23:38;;;;;;;4.65;1.98;;;22.20;99.90;;;;;;5024379;28;20044;-68
2023/08/03 11:26:06;;;;;;;4.25;1.95;;;22.20;99.90;;;;;;5007806;28;20069;-68
2023/08/03 11:28:44;;;;;;;6.88;1.95;;;22.20;99.90;;;;;;5009707;28;20093;-68
2023/08/03 11:31:18;;;;;;;6.50;1.92;;;22.30;99.90;;;;;;5023605;28;20049;-68
2023/08/03 11:33:49;;;;;;;5.97;2.17;;;22.20;99.90;;;;;;5023063;28;20057;-68
2023/08/03 11:36:22;;;;;;;7.28;2.05;;;22.30;99.90;;;;;;5019117;28;20048;-68
2023/08/03 11:38:49;;;;;;;4.53;1.73;;;22.10;99.90;;;;;;5016407;28;20041;-68
2023/08/03 11:41:18;;;;;;;3.25;1.45;;;21.90;99.90;;;;;;5003009;28;20051;-68
2023/08/03 11:43:44;;;;;;;4.55;1.40;;;21.90;99.90;;;;;;5017125;28;20553;-68
2023/08/03 11:46:09;;;;;;;4.13;1.30;;;21.90;99.90;;;;;;5014792;28;20124;-68
2023/08/03 11:48:35;;;;;;;3.25;1.38;;;22.00;99.90;;;;;;5003380;28;20547;-68
2023/08/03 11:51:04;;;;;;;5.50;1.80;;;21.80;99.90;;;;;;5016910;28;20116;-68
2023/08/03 11:53:30;;;;;;;5.53;1.75;;;21.90;99.90;;;;;;5015333;28;20059;-69
2023/08/03 11:55:59;;;;;;;5.00;1.73;;;22.00;99.90;;;;;;5016952;28;20693;-68
2023/08/03 11:58:26;;;;;;;3.50;1.30;;;21.80;99.90;;;;;;5019000;28;20076;-68
2023/08/03 12:01:04;;;;;;;5.25;1.40;;;21.50;99.90;;;;;;5021367;28;20491;-68
2023/08/03 12:03:35;;;;;;;4.10;1.08;;;21.80;99.90;;;;;;5015710;28;20052;-68
2023/08/03 12:06:06;;;;;;;2.70;1.00;;;21.90;99.90;;;;;;5026946;28;20041;-68
2023/08/03 12:09:01;;;;;;;4.47;1.48;;;21.90;99.90;;;;;;5016359;28;20442;-68
2023/08/03 12:11:28;;;;;;;4.68;1.85;;;22.10;99.90;;;;;;5008548;28;20064;-68
2023/08/03 12:13:54;;;;;;;4.63;1.50;;;22.20;99.90;;;;;;5018318;28;20061;-68
2023/08/03 12:16:19;;;;;;;4.18;1.65;;;22.30;99.90;;;;;;5018913;28;20042;-68
2023/08/03 12:18:45;;;;;;;5.10;1.80;;;22.20;99.90;;;;;;5013818;28;20424;-68
2023/08/03 12:21:11;;;;;;;4.38;1.50;;;22.10;99.90;;;;;;5022077;28;20037;-68
2023/08/03 12:23:36;;;;;;;4.22;1.60;;;22.00;99.90;;;;;;5017383;28;20041;-68
2023/08/03 12:26:02;;;;;;;5.32;1.65;;;21.90;99.90;;;;;;5006886;28;20049;-68
2023/08/03 12:28:27;;;;;;;4.60;1.92;;;22.00;99.90;;;;;;5018775;28;20036;-68
2023/08/03 12:30:53;;;;;;;4.82;1.77;;;22.20;99.90;;;;;;5018346;28;20041;-68
2023/08/03 12:33:19;;;;;;;4.82;2.10;;;22.50;99.90;;;;;;5009547;28;20053;-68
2023/08/03 12:35:44;;;;;;;4.97;1.80;;;22.70;99.90;;;;;;5003766;28;20559;-68
2023/08/03 12:38:10;;;;;;;6.85;2.10;;;23.00;99.90;;;;;;5027083;28;20033;-68
2023/08/03 12:40:35;;;;;;;6.43;1.92;;;23.10;99.90;;;;;;5017953;28;20066;-68
2023/08/03 12:43:01;;;;;;;6.03;2.00;;;23.10;99.90;;;;;;5015626;28;20495;-68
2023/08/03 12:45:26;;;;;;;7.38;2.38;;;23.00;99.90;;;;;;5006882;28;20072;-68
2023/08/03 12:47:54;;;;;;;7.43;1.95;;;22.80;99.90;;;;;;5015001;28;20030;-68
2023/08/03 12:50:20;;;;;;;6.05;2.00;;;22.60;99.90;;;;;;5020030;28;20107;-68
2023/08/03 12:52:46;;;;;;;7.05;1.80;;;22.50;99.90;;;;;;5029368;28;20461;-68
2023/08/03 12:55:12;;;;;;;5.85;1.70;;;22.50;99.90;;;;;;5020339;28;20515;-68